<?xml version="1.0" encoding="UTF-8" standalone="no" ?>
<gpx xmlns="http://www.topografix.com/GPX/1/1" xmlns:xsi="http://www.w3.org/2001/XMLSchema-instance" xsi:schemaLocation="http://www.topografix.com/GPX/1/1 http://www.topografix.com/GPX/1/1/gpx.xsd" version="1.1" creator="VisuGPX - https://www.visugpx.com">
  <metadata>
    <name>Dérivation par le lac de Sidiailles d'Estondes à la croix Cordeau</name>
    <desc><![CDATA[Sentier des Maîtres Sonneurs Dérivation par le lac de Sidiailles ([i]Estondes  - La Croix Cordeau[/i])

Dérivation hors du sentier sur un très beau parcours [i](un des plus beau de la région Centre Val de Loire)[/i] autour du lac de Sidiailles]]></desc>
  </metadata>
  <wpt lat="46.50088" lon="2.29622">
    <ele>332</ele>
    <name><![CDATA[Point de passage 1]]></name>
    <type><![CDATA[GENERIC]]></type>
  </wpt>
  <wpt lat="46.48579" lon="2.31125">
    <ele>344</ele>
    <name><![CDATA[Point de passage 2]]></name>
    <type><![CDATA[GENERIC]]></type>
  </wpt>
  <trk>
    <name><![CDATA[Dérivation par le lac de Sidiailles]]></name>
    <trkseg>
      <trkpt lat="46.50088" lon="2.29622">
        <ele>332</ele>
        <time>2025-07-31T06:55:55.000Z</time>
      </trkpt>
      <trkpt lat="46.50059" lon="2.29628">
        <ele>331</ele>
        <time>2025-07-31T06:56:29.000Z</time>
      </trkpt>
      <trkpt lat="46.50035" lon="2.2964">
        <ele>330</ele>
        <time>2025-07-31T06:56:58.000Z</time>
      </trkpt>
      <trkpt lat="46.50022" lon="2.29656">
        <ele>330</ele>
        <time>2025-07-31T06:57:18.000Z</time>
      </trkpt>
      <trkpt lat="46.50015" lon="2.2967">
        <ele>330</ele>
        <time>2025-07-31T06:57:32.000Z</time>
      </trkpt>
      <trkpt lat="46.50003" lon="2.29742">
        <ele>328</ele>
        <time>2025-07-31T06:58:30.000Z</time>
      </trkpt>
      <trkpt lat="46.49995" lon="2.2981">
        <ele>328</ele>
        <time>2025-07-31T06:59:24.000Z</time>
      </trkpt>
      <trkpt lat="46.49995" lon="2.29846">
        <ele>327</ele>
        <time>2025-07-31T06:59:52.000Z</time>
      </trkpt>
      <trkpt lat="46.49996" lon="2.29898">
        <ele>329</ele>
        <time>2025-07-31T07:00:54.000Z</time>
      </trkpt>
      <trkpt lat="46.49976" lon="2.29987">
        <ele>333</ele>
        <time>2025-07-31T07:02:49.000Z</time>
      </trkpt>
      <trkpt lat="46.49974" lon="2.30014">
        <ele>333</ele>
        <time>2025-07-31T07:03:10.000Z</time>
      </trkpt>
      <trkpt lat="46.49981" lon="2.30096">
        <ele>332</ele>
        <time>2025-07-31T07:04:15.000Z</time>
      </trkpt>
      <trkpt lat="46.50005" lon="2.30383">
        <ele>315</ele>
        <time>2025-07-31T07:08:03.000Z</time>
      </trkpt>
      <trkpt lat="46.50026" lon="2.30569">
        <ele>307</ele>
        <time>2025-07-31T07:10:32.000Z</time>
      </trkpt>
      <trkpt lat="46.50119" lon="2.30761">
        <ele>322</ele>
        <time>2025-07-31T07:16:11.000Z</time>
      </trkpt>
      <trkpt lat="46.50166" lon="2.30857">
        <ele>328</ele>
        <time>2025-07-31T07:18:46.000Z</time>
      </trkpt>
      <trkpt lat="46.50216" lon="2.3095">
        <ele>330</ele>
        <time>2025-07-31T07:20:39.000Z</time>
      </trkpt>
      <trkpt lat="46.50255" lon="2.3101">
        <ele>329</ele>
        <time>2025-07-31T07:21:44.000Z</time>
      </trkpt>
      <trkpt lat="46.50295" lon="2.31127">
        <ele>329</ele>
        <time>2025-07-31T07:23:27.000Z</time>
      </trkpt>
      <trkpt lat="46.5031" lon="2.31164">
        <ele>329</ele>
        <time>2025-07-31T07:24:01.000Z</time>
      </trkpt>
      <trkpt lat="46.5028" lon="2.3121">
        <ele>327</ele>
        <time>2025-07-31T07:24:51.000Z</time>
      </trkpt>
      <trkpt lat="46.50268" lon="2.31229">
        <ele>327</ele>
        <time>2025-07-31T07:25:11.000Z</time>
      </trkpt>
      <trkpt lat="46.50262" lon="2.31252">
        <ele>326</ele>
        <time>2025-07-31T07:25:30.000Z</time>
      </trkpt>
      <trkpt lat="46.50262" lon="2.31276">
        <ele>325</ele>
        <time>2025-07-31T07:25:49.000Z</time>
      </trkpt>
      <trkpt lat="46.50271" lon="2.31371">
        <ele>322</ele>
        <time>2025-07-31T07:27:05.000Z</time>
      </trkpt>
      <trkpt lat="46.50281" lon="2.31475">
        <ele>317</ele>
        <time>2025-07-31T07:28:28.000Z</time>
      </trkpt>
      <trkpt lat="46.50292" lon="2.31529">
        <ele>314</ele>
        <time>2025-07-31T07:29:12.000Z</time>
      </trkpt>
      <trkpt lat="46.50319" lon="2.31626">
        <ele>308</ele>
        <time>2025-07-31T07:30:34.000Z</time>
      </trkpt>
      <trkpt lat="46.50341" lon="2.31707">
        <ele>309</ele>
        <time>2025-07-31T07:31:53.000Z</time>
      </trkpt>
      <trkpt lat="46.50351" lon="2.31759">
        <ele>313</ele>
        <time>2025-07-31T07:33:16.000Z</time>
      </trkpt>
      <trkpt lat="46.50369" lon="2.31789">
        <ele>316</ele>
        <time>2025-07-31T07:34:18.000Z</time>
      </trkpt>
      <trkpt lat="46.50388" lon="2.31829">
        <ele>320</ele>
        <time>2025-07-31T07:35:37.000Z</time>
      </trkpt>
      <trkpt lat="46.50425" lon="2.31886">
        <ele>322</ele>
        <time>2025-07-31T07:37:00.000Z</time>
      </trkpt>
      <trkpt lat="46.50457" lon="2.31937">
        <ele>321</ele>
        <time>2025-07-31T07:37:54.000Z</time>
      </trkpt>
      <trkpt lat="46.50471" lon="2.31966">
        <ele>320</ele>
        <time>2025-07-31T07:38:22.000Z</time>
      </trkpt>
      <trkpt lat="46.50478" lon="2.31983">
        <ele>319</ele>
        <time>2025-07-31T07:38:37.000Z</time>
      </trkpt>
      <trkpt lat="46.5048" lon="2.32017">
        <ele>318</ele>
        <time>2025-07-31T07:39:04.000Z</time>
      </trkpt>
      <trkpt lat="46.50471" lon="2.32055">
        <ele>317</ele>
        <time>2025-07-31T07:39:36.000Z</time>
      </trkpt>
      <trkpt lat="46.5046" lon="2.32081">
        <ele>316</ele>
        <time>2025-07-31T07:40:00.000Z</time>
      </trkpt>
      <trkpt lat="46.50437" lon="2.32119">
        <ele>316</ele>
        <time>2025-07-31T07:40:40.000Z</time>
      </trkpt>
      <trkpt lat="46.50427" lon="2.32134">
        <ele>315</ele>
        <time>2025-07-31T07:40:56.000Z</time>
      </trkpt>
      <trkpt lat="46.5043" lon="2.32156">
        <ele>316</ele>
        <time>2025-07-31T07:41:23.000Z</time>
      </trkpt>
      <trkpt lat="46.50457" lon="2.32256">
        <ele>316</ele>
        <time>2025-07-31T07:42:48.000Z</time>
      </trkpt>
      <trkpt lat="46.50465" lon="2.32277">
        <ele>316</ele>
        <time>2025-07-31T07:43:06.000Z</time>
      </trkpt>
      <trkpt lat="46.50493" lon="2.32313">
        <ele>317</ele>
        <time>2025-07-31T07:43:59.000Z</time>
      </trkpt>
      <trkpt lat="46.50509" lon="2.32341">
        <ele>318</ele>
        <time>2025-07-31T07:44:38.000Z</time>
      </trkpt>
      <trkpt lat="46.50537" lon="2.32365">
        <ele>319</ele>
        <time>2025-07-31T07:45:26.000Z</time>
      </trkpt>
      <trkpt lat="46.50507" lon="2.32418">
        <ele>319</ele>
        <time>2025-07-31T07:46:20.000Z</time>
      </trkpt>
      <trkpt lat="46.50489" lon="2.32453">
        <ele>318</ele>
        <time>2025-07-31T07:46:55.000Z</time>
      </trkpt>
      <trkpt lat="46.50466" lon="2.32521">
        <ele>317</ele>
        <time>2025-07-31T07:47:54.000Z</time>
      </trkpt>
      <trkpt lat="46.5046" lon="2.32534">
        <ele>317</ele>
        <time>2025-07-31T07:48:07.000Z</time>
      </trkpt>
      <trkpt lat="46.50461" lon="2.32545">
        <ele>317</ele>
        <time>2025-07-31T07:48:16.000Z</time>
      </trkpt>
      <trkpt lat="46.50433" lon="2.32623">
        <ele>316</ele>
        <time>2025-07-31T07:49:26.000Z</time>
      </trkpt>
      <trkpt lat="46.5042" lon="2.32661">
        <ele>315</ele>
        <time>2025-07-31T07:50:00.000Z</time>
      </trkpt>
      <trkpt lat="46.50413" lon="2.32726">
        <ele>313</ele>
        <time>2025-07-31T07:50:51.000Z</time>
      </trkpt>
      <trkpt lat="46.50406" lon="2.32801">
        <ele>309</ele>
        <time>2025-07-31T07:51:51.000Z</time>
      </trkpt>
      <trkpt lat="46.50407" lon="2.32837">
        <ele>307</ele>
        <time>2025-07-31T07:52:20.000Z</time>
      </trkpt>
      <trkpt lat="46.5041" lon="2.3288">
        <ele>303</ele>
        <time>2025-07-31T07:52:54.000Z</time>
      </trkpt>
      <trkpt lat="46.50416" lon="2.32926">
        <ele>299</ele>
        <time>2025-07-31T07:53:31.000Z</time>
      </trkpt>
      <trkpt lat="46.50434" lon="2.3298">
        <ele>299</ele>
        <time>2025-07-31T07:54:18.000Z</time>
      </trkpt>
      <trkpt lat="46.50458" lon="2.33035">
        <ele>297</ele>
        <time>2025-07-31T07:55:10.000Z</time>
      </trkpt>
      <trkpt lat="46.50489" lon="2.33095">
        <ele>293</ele>
        <time>2025-07-31T07:56:09.000Z</time>
      </trkpt>
      <trkpt lat="46.505" lon="2.33118">
        <ele>291</ele>
        <time>2025-07-31T07:56:31.000Z</time>
      </trkpt>
      <trkpt lat="46.50507" lon="2.33127">
        <ele>290</ele>
        <time>2025-07-31T07:56:42.000Z</time>
      </trkpt>
      <trkpt lat="46.50514" lon="2.33124">
        <ele>290</ele>
        <time>2025-07-31T07:56:50.000Z</time>
      </trkpt>
      <trkpt lat="46.50538" lon="2.33113">
        <ele>289</ele>
        <time>2025-07-31T07:57:18.000Z</time>
      </trkpt>
      <trkpt lat="46.50547" lon="2.33107">
        <ele>288</ele>
        <time>2025-07-31T07:57:30.000Z</time>
      </trkpt>
      <trkpt lat="46.50555" lon="2.33094">
        <ele>288</ele>
        <time>2025-07-31T07:57:44.000Z</time>
      </trkpt>
      <trkpt lat="46.50565" lon="2.33053">
        <ele>291</ele>
        <time>2025-07-31T07:58:49.000Z</time>
      </trkpt>
      <trkpt lat="46.50619" lon="2.33044">
        <ele>290</ele>
        <time>2025-07-31T07:59:52.000Z</time>
      </trkpt>
      <trkpt lat="46.50655" lon="2.33066">
        <ele>289</ele>
        <time>2025-07-31T08:00:37.000Z</time>
      </trkpt>
      <trkpt lat="46.50705" lon="2.33076">
        <ele>278</ele>
        <time>2025-07-31T08:01:35.000Z</time>
      </trkpt>
      <trkpt lat="46.50838" lon="2.33061">
        <ele>291</ele>
        <time>2025-07-31T08:06:21.000Z</time>
      </trkpt>
      <trkpt lat="46.50918" lon="2.33048">
        <ele>291</ele>
        <time>2025-07-31T08:07:54.000Z</time>
      </trkpt>
      <trkpt lat="46.50936" lon="2.33069">
        <ele>289</ele>
        <time>2025-07-31T08:08:21.000Z</time>
      </trkpt>
      <trkpt lat="46.50952" lon="2.33115">
        <ele>284</ele>
        <time>2025-07-31T08:09:01.000Z</time>
      </trkpt>
      <trkpt lat="46.50994" lon="2.33166">
        <ele>286</ele>
        <time>2025-07-31T08:10:24.000Z</time>
      </trkpt>
      <trkpt lat="46.51018" lon="2.33173">
        <ele>288</ele>
        <time>2025-07-31T08:11:13.000Z</time>
      </trkpt>
      <trkpt lat="46.51078" lon="2.33187">
        <ele>284</ele>
        <time>2025-07-31T08:12:23.000Z</time>
      </trkpt>
      <trkpt lat="46.51134" lon="2.33183">
        <ele>278</ele>
        <time>2025-07-31T08:13:28.000Z</time>
      </trkpt>
      <trkpt lat="46.51195" lon="2.33164">
        <ele>272</ele>
        <time>2025-07-31T08:14:39.000Z</time>
      </trkpt>
      <trkpt lat="46.51266" lon="2.33091">
        <ele>273</ele>
        <time>2025-07-31T08:16:29.000Z</time>
      </trkpt>
      <trkpt lat="46.51298" lon="2.33082">
        <ele>262</ele>
        <time>2025-07-31T08:17:07.000Z</time>
      </trkpt>
      <trkpt lat="46.51318" lon="2.331">
        <ele>255</ele>
        <time>2025-07-31T08:17:33.000Z</time>
      </trkpt>
      <trkpt lat="46.51319" lon="2.33129">
        <ele>250</ele>
        <time>2025-07-31T08:17:55.000Z</time>
      </trkpt>
      <trkpt lat="46.51307" lon="2.3318">
        <ele>251</ele>
        <time>2025-07-31T08:18:48.000Z</time>
      </trkpt>
      <trkpt lat="46.51296" lon="2.33176">
        <ele>250</ele>
        <time>2025-07-31T08:19:01.000Z</time>
      </trkpt>
      <trkpt lat="46.51285" lon="2.33181">
        <ele>250</ele>
        <time>2025-07-31T08:19:14.000Z</time>
      </trkpt>
      <trkpt lat="46.5122" lon="2.33248">
        <ele>260</ele>
        <time>2025-07-31T08:22:28.000Z</time>
      </trkpt>
      <trkpt lat="46.51184" lon="2.33273">
        <ele>260</ele>
        <time>2025-07-31T08:23:14.000Z</time>
      </trkpt>
      <trkpt lat="46.51152" lon="2.33283">
        <ele>259</ele>
        <time>2025-07-31T08:23:51.000Z</time>
      </trkpt>
      <trkpt lat="46.51135" lon="2.33289">
        <ele>260</ele>
        <time>2025-07-31T08:24:22.000Z</time>
      </trkpt>
      <trkpt lat="46.51118" lon="2.33299">
        <ele>261</ele>
        <time>2025-07-31T08:24:53.000Z</time>
      </trkpt>
      <trkpt lat="46.5104" lon="2.33329">
        <ele>265</ele>
        <time>2025-07-31T08:27:06.000Z</time>
      </trkpt>
      <trkpt lat="46.51006" lon="2.33333">
        <ele>265</ele>
        <time>2025-07-31T08:27:45.000Z</time>
      </trkpt>
      <trkpt lat="46.50985" lon="2.33332">
        <ele>266</ele>
        <time>2025-07-31T08:28:20.000Z</time>
      </trkpt>
      <trkpt lat="46.50951" lon="2.33343">
        <ele>272</ele>
        <time>2025-07-31T08:30:01.000Z</time>
      </trkpt>
      <trkpt lat="46.50923" lon="2.33352">
        <ele>276</ele>
        <time>2025-07-31T08:31:15.000Z</time>
      </trkpt>
      <trkpt lat="46.50921" lon="2.33355">
        <ele>277</ele>
        <time>2025-07-31T08:31:29.000Z</time>
      </trkpt>
      <trkpt lat="46.50903" lon="2.33333">
        <ele>276</ele>
        <time>2025-07-31T08:31:56.000Z</time>
      </trkpt>
      <trkpt lat="46.50877" lon="2.33316">
        <ele>276</ele>
        <time>2025-07-31T08:32:29.000Z</time>
      </trkpt>
      <trkpt lat="46.50868" lon="2.33322">
        <ele>277</ele>
        <time>2025-07-31T08:32:50.000Z</time>
      </trkpt>
      <trkpt lat="46.50857" lon="2.33334">
        <ele>278</ele>
        <time>2025-07-31T08:33:16.000Z</time>
      </trkpt>
      <trkpt lat="46.5085" lon="2.3334">
        <ele>277</ele>
        <time>2025-07-31T08:33:25.000Z</time>
      </trkpt>
      <trkpt lat="46.50848" lon="2.33349">
        <ele>277</ele>
        <time>2025-07-31T08:33:32.000Z</time>
      </trkpt>
      <trkpt lat="46.50839" lon="2.33374">
        <ele>279</ele>
        <time>2025-07-31T08:34:15.000Z</time>
      </trkpt>
      <trkpt lat="46.50833" lon="2.33387">
        <ele>281</ele>
        <time>2025-07-31T08:34:48.000Z</time>
      </trkpt>
      <trkpt lat="46.50827" lon="2.33413">
        <ele>283</ele>
        <time>2025-07-31T08:35:30.000Z</time>
      </trkpt>
      <trkpt lat="46.50817" lon="2.33434">
        <ele>286</ele>
        <time>2025-07-31T08:36:22.000Z</time>
      </trkpt>
      <trkpt lat="46.50811" lon="2.33431">
        <ele>286</ele>
        <time>2025-07-31T08:36:29.000Z</time>
      </trkpt>
      <trkpt lat="46.50799" lon="2.33419">
        <ele>286</ele>
        <time>2025-07-31T08:36:45.000Z</time>
      </trkpt>
      <trkpt lat="46.50793" lon="2.33389">
        <ele>285</ele>
        <time>2025-07-31T08:37:09.000Z</time>
      </trkpt>
      <trkpt lat="46.50787" lon="2.33367">
        <ele>285</ele>
        <time>2025-07-31T08:37:28.000Z</time>
      </trkpt>
      <trkpt lat="46.50776" lon="2.33348">
        <ele>285</ele>
        <time>2025-07-31T08:37:47.000Z</time>
      </trkpt>
      <trkpt lat="46.50774" lon="2.3333">
        <ele>284</ele>
        <time>2025-07-31T08:38:02.000Z</time>
      </trkpt>
      <trkpt lat="46.50766" lon="2.33312">
        <ele>283</ele>
        <time>2025-07-31T08:38:19.000Z</time>
      </trkpt>
      <trkpt lat="46.50751" lon="2.33311">
        <ele>285</ele>
        <time>2025-07-31T08:38:56.000Z</time>
      </trkpt>
      <trkpt lat="46.5073" lon="2.33345">
        <ele>290</ele>
        <time>2025-07-31T08:40:23.000Z</time>
      </trkpt>
      <trkpt lat="46.50721" lon="2.33342">
        <ele>289</ele>
        <time>2025-07-31T08:40:35.000Z</time>
      </trkpt>
      <trkpt lat="46.50709" lon="2.33348">
        <ele>289</ele>
        <time>2025-07-31T08:40:49.000Z</time>
      </trkpt>
      <trkpt lat="46.50676" lon="2.33351">
        <ele>288</ele>
        <time>2025-07-31T08:41:27.000Z</time>
      </trkpt>
      <trkpt lat="46.5067" lon="2.33363">
        <ele>289</ele>
        <time>2025-07-31T08:41:49.000Z</time>
      </trkpt>
      <trkpt lat="46.50658" lon="2.33373">
        <ele>289</ele>
        <time>2025-07-31T08:42:05.000Z</time>
      </trkpt>
      <trkpt lat="46.50649" lon="2.33387">
        <ele>288</ele>
        <time>2025-07-31T08:42:21.000Z</time>
      </trkpt>
      <trkpt lat="46.50641" lon="2.33402">
        <ele>290</ele>
        <time>2025-07-31T08:42:57.000Z</time>
      </trkpt>
      <trkpt lat="46.50627" lon="2.33416">
        <ele>287</ele>
        <time>2025-07-31T08:43:17.000Z</time>
      </trkpt>
      <trkpt lat="46.50588" lon="2.33422">
        <ele>276</ele>
        <time>2025-07-31T08:44:02.000Z</time>
      </trkpt>
      <trkpt lat="46.50539" lon="2.33442">
        <ele>271</ele>
        <time>2025-07-31T08:45:01.000Z</time>
      </trkpt>
      <trkpt lat="46.50498" lon="2.33464">
        <ele>272</ele>
        <time>2025-07-31T08:46:01.000Z</time>
      </trkpt>
      <trkpt lat="46.50448" lon="2.33468">
        <ele>272</ele>
        <time>2025-07-31T08:46:59.000Z</time>
      </trkpt>
      <trkpt lat="46.50424" lon="2.33478">
        <ele>271</ele>
        <time>2025-07-31T08:47:28.000Z</time>
      </trkpt>
      <trkpt lat="46.50412" lon="2.33507">
        <ele>271</ele>
        <time>2025-07-31T08:47:55.000Z</time>
      </trkpt>
      <trkpt lat="46.50423" lon="2.33593">
        <ele>275</ele>
        <time>2025-07-31T08:49:45.000Z</time>
      </trkpt>
      <trkpt lat="46.50412" lon="2.33602">
        <ele>274</ele>
        <time>2025-07-31T08:49:59.000Z</time>
      </trkpt>
      <trkpt lat="46.50378" lon="2.33594">
        <ele>276</ele>
        <time>2025-07-31T08:50:59.000Z</time>
      </trkpt>
      <trkpt lat="46.50355" lon="2.33582">
        <ele>277</ele>
        <time>2025-07-31T08:51:37.000Z</time>
      </trkpt>
      <trkpt lat="46.50337" lon="2.3359">
        <ele>276</ele>
        <time>2025-07-31T08:51:59.000Z</time>
      </trkpt>
      <trkpt lat="46.50303" lon="2.33611">
        <ele>276</ele>
        <time>2025-07-31T08:52:41.000Z</time>
      </trkpt>
      <trkpt lat="46.50277" lon="2.33623">
        <ele>276</ele>
        <time>2025-07-31T08:53:12.000Z</time>
      </trkpt>
      <trkpt lat="46.50262" lon="2.33619">
        <ele>276</ele>
        <time>2025-07-31T08:53:30.000Z</time>
      </trkpt>
      <trkpt lat="46.50228" lon="2.33646">
        <ele>279</ele>
        <time>2025-07-31T08:54:45.000Z</time>
      </trkpt>
      <trkpt lat="46.50225" lon="2.33677">
        <ele>279</ele>
        <time>2025-07-31T08:55:09.000Z</time>
      </trkpt>
      <trkpt lat="46.50222" lon="2.3371">
        <ele>280</ele>
        <time>2025-07-31T08:55:45.000Z</time>
      </trkpt>
      <trkpt lat="46.50223" lon="2.33731">
        <ele>281</ele>
        <time>2025-07-31T08:56:12.000Z</time>
      </trkpt>
      <trkpt lat="46.50217" lon="2.33785">
        <ele>281</ele>
        <time>2025-07-31T08:56:56.000Z</time>
      </trkpt>
      <trkpt lat="46.50215" lon="2.33841">
        <ele>283</ele>
        <time>2025-07-31T08:58:00.000Z</time>
      </trkpt>
      <trkpt lat="46.50214" lon="2.33896">
        <ele>284</ele>
        <time>2025-07-31T08:58:54.000Z</time>
      </trkpt>
      <trkpt lat="46.50219" lon="2.3395">
        <ele>281</ele>
        <time>2025-07-31T08:59:37.000Z</time>
      </trkpt>
      <trkpt lat="46.50202" lon="2.33955">
        <ele>276</ele>
        <time>2025-07-31T08:59:58.000Z</time>
      </trkpt>
      <trkpt lat="46.50183" lon="2.33955">
        <ele>271</ele>
        <time>2025-07-31T09:00:20.000Z</time>
      </trkpt>
      <trkpt lat="46.5016" lon="2.33948">
        <ele>265</ele>
        <time>2025-07-31T09:00:47.000Z</time>
      </trkpt>
      <trkpt lat="46.50152" lon="2.33954">
        <ele>265</ele>
        <time>2025-07-31T09:00:57.000Z</time>
      </trkpt>
      <trkpt lat="46.50149" lon="2.33968">
        <ele>266</ele>
        <time>2025-07-31T09:01:19.000Z</time>
      </trkpt>
      <trkpt lat="46.50137" lon="2.33966">
        <ele>262</ele>
        <time>2025-07-31T09:01:33.000Z</time>
      </trkpt>
      <trkpt lat="46.50126" lon="2.33986">
        <ele>264</ele>
        <time>2025-07-31T09:02:13.000Z</time>
      </trkpt>
      <trkpt lat="46.50132" lon="2.34028">
        <ele>271</ele>
        <time>2025-07-31T09:03:58.000Z</time>
      </trkpt>
      <trkpt lat="46.50128" lon="2.34065">
        <ele>269</ele>
        <time>2025-07-31T09:04:28.000Z</time>
      </trkpt>
      <trkpt lat="46.50111" lon="2.34103">
        <ele>266</ele>
        <time>2025-07-31T09:05:04.000Z</time>
      </trkpt>
      <trkpt lat="46.50081" lon="2.34131">
        <ele>267</ele>
        <time>2025-07-31T09:05:55.000Z</time>
      </trkpt>
      <trkpt lat="46.50056" lon="2.34146">
        <ele>269</ele>
        <time>2025-07-31T09:06:46.000Z</time>
      </trkpt>
      <trkpt lat="46.50029" lon="2.34152">
        <ele>270</ele>
        <time>2025-07-31T09:07:27.000Z</time>
      </trkpt>
      <trkpt lat="46.50023" lon="2.34145">
        <ele>273</ele>
        <time>2025-07-31T09:08:07.000Z</time>
      </trkpt>
      <trkpt lat="46.50024" lon="2.3413">
        <ele>274</ele>
        <time>2025-07-31T09:08:29.000Z</time>
      </trkpt>
      <trkpt lat="46.50033" lon="2.34107">
        <ele>275</ele>
        <time>2025-07-31T09:09:00.000Z</time>
      </trkpt>
      <trkpt lat="46.50056" lon="2.34079">
        <ele>275</ele>
        <time>2025-07-31T09:09:34.000Z</time>
      </trkpt>
      <trkpt lat="46.5006" lon="2.3404">
        <ele>280</ele>
        <time>2025-07-31T09:10:57.000Z</time>
      </trkpt>
      <trkpt lat="46.50054" lon="2.33983">
        <ele>286</ele>
        <time>2025-07-31T09:12:44.000Z</time>
      </trkpt>
      <trkpt lat="46.50044" lon="2.33929">
        <ele>289</ele>
        <time>2025-07-31T09:13:59.000Z</time>
      </trkpt>
      <trkpt lat="46.50026" lon="2.33845">
        <ele>289</ele>
        <time>2025-07-31T09:15:08.000Z</time>
      </trkpt>
      <trkpt lat="46.50002" lon="2.33759">
        <ele>290</ele>
        <time>2025-07-31T09:16:31.000Z</time>
      </trkpt>
      <trkpt lat="46.49996" lon="2.33676">
        <ele>287</ele>
        <time>2025-07-31T09:17:36.000Z</time>
      </trkpt>
      <trkpt lat="46.49991" lon="2.33606">
        <ele>285</ele>
        <time>2025-07-31T09:18:32.000Z</time>
      </trkpt>
      <trkpt lat="46.49993" lon="2.33592">
        <ele>285</ele>
        <time>2025-07-31T09:18:43.000Z</time>
      </trkpt>
      <trkpt lat="46.49991" lon="2.33572">
        <ele>284</ele>
        <time>2025-07-31T09:18:59.000Z</time>
      </trkpt>
      <trkpt lat="46.49864" lon="2.33504">
        <ele>280</ele>
        <time>2025-07-31T09:21:33.000Z</time>
      </trkpt>
      <trkpt lat="46.4986" lon="2.33508">
        <ele>281</ele>
        <time>2025-07-31T09:21:49.000Z</time>
      </trkpt>
      <trkpt lat="46.49861" lon="2.33579">
        <ele>285</ele>
        <time>2025-07-31T09:23:26.000Z</time>
      </trkpt>
      <trkpt lat="46.49813" lon="2.33524">
        <ele>283</ele>
        <time>2025-07-31T09:24:35.000Z</time>
      </trkpt>
      <trkpt lat="46.49803" lon="2.33492">
        <ele>282</ele>
        <time>2025-07-31T09:25:03.000Z</time>
      </trkpt>
      <trkpt lat="46.49802" lon="2.3346">
        <ele>280</ele>
        <time>2025-07-31T09:25:28.000Z</time>
      </trkpt>
      <trkpt lat="46.49796" lon="2.33428">
        <ele>277</ele>
        <time>2025-07-31T09:25:54.000Z</time>
      </trkpt>
      <trkpt lat="46.49789" lon="2.33418">
        <ele>276</ele>
        <time>2025-07-31T09:26:05.000Z</time>
      </trkpt>
      <trkpt lat="46.49775" lon="2.33409">
        <ele>276</ele>
        <time>2025-07-31T09:26:23.000Z</time>
      </trkpt>
      <trkpt lat="46.49742" lon="2.33392">
        <ele>275</ele>
        <time>2025-07-31T09:27:03.000Z</time>
      </trkpt>
      <trkpt lat="46.49701" lon="2.33358">
        <ele>275</ele>
        <time>2025-07-31T09:27:57.000Z</time>
      </trkpt>
      <trkpt lat="46.49679" lon="2.33343">
        <ele>276</ele>
        <time>2025-07-31T09:28:35.000Z</time>
      </trkpt>
      <trkpt lat="46.49653" lon="2.3334">
        <ele>280</ele>
        <time>2025-07-31T09:29:45.000Z</time>
      </trkpt>
      <trkpt lat="46.4957" lon="2.33345">
        <ele>281</ele>
        <time>2025-07-31T09:31:31.000Z</time>
      </trkpt>
      <trkpt lat="46.49538" lon="2.33346">
        <ele>280</ele>
        <time>2025-07-31T09:32:08.000Z</time>
      </trkpt>
      <trkpt lat="46.49516" lon="2.33338">
        <ele>280</ele>
        <time>2025-07-31T09:32:34.000Z</time>
      </trkpt>
      <trkpt lat="46.49496" lon="2.33317">
        <ele>280</ele>
        <time>2025-07-31T09:33:02.000Z</time>
      </trkpt>
      <trkpt lat="46.49472" lon="2.33263">
        <ele>279</ele>
        <time>2025-07-31T09:33:53.000Z</time>
      </trkpt>
      <trkpt lat="46.49459" lon="2.33239">
        <ele>278</ele>
        <time>2025-07-31T09:34:17.000Z</time>
      </trkpt>
      <trkpt lat="46.49443" lon="2.33223">
        <ele>276</ele>
        <time>2025-07-31T09:34:39.000Z</time>
      </trkpt>
      <trkpt lat="46.49397" lon="2.33181">
        <ele>277</ele>
        <time>2025-07-31T09:35:51.000Z</time>
      </trkpt>
      <trkpt lat="46.49389" lon="2.33165">
        <ele>278</ele>
        <time>2025-07-31T09:36:18.000Z</time>
      </trkpt>
      <trkpt lat="46.49382" lon="2.33106">
        <ele>276</ele>
        <time>2025-07-31T09:37:05.000Z</time>
      </trkpt>
      <trkpt lat="46.49376" lon="2.33086">
        <ele>275</ele>
        <time>2025-07-31T09:37:21.000Z</time>
      </trkpt>
      <trkpt lat="46.4936" lon="2.33069">
        <ele>274</ele>
        <time>2025-07-31T09:37:44.000Z</time>
      </trkpt>
      <trkpt lat="46.49293" lon="2.33024">
        <ele>276</ele>
        <time>2025-07-31T09:39:29.000Z</time>
      </trkpt>
      <trkpt lat="46.49258" lon="2.33">
        <ele>275</ele>
        <time>2025-07-31T09:40:13.000Z</time>
      </trkpt>
      <trkpt lat="46.49236" lon="2.32995">
        <ele>274</ele>
        <time>2025-07-31T09:40:38.000Z</time>
      </trkpt>
      <trkpt lat="46.49192" lon="2.32992">
        <ele>276</ele>
        <time>2025-07-31T09:41:49.000Z</time>
      </trkpt>
      <trkpt lat="46.49167" lon="2.32984">
        <ele>275</ele>
        <time>2025-07-31T09:42:19.000Z</time>
      </trkpt>
      <trkpt lat="46.49154" lon="2.3296">
        <ele>276</ele>
        <time>2025-07-31T09:42:53.000Z</time>
      </trkpt>
      <trkpt lat="46.49145" lon="2.32924">
        <ele>277</ele>
        <time>2025-07-31T09:43:34.000Z</time>
      </trkpt>
      <trkpt lat="46.49136" lon="2.32874">
        <ele>276</ele>
        <time>2025-07-31T09:44:15.000Z</time>
      </trkpt>
      <trkpt lat="46.49123" lon="2.32829">
        <ele>277</ele>
        <time>2025-07-31T09:45:03.000Z</time>
      </trkpt>
      <trkpt lat="46.49094" lon="2.32741">
        <ele>276</ele>
        <time>2025-07-31T09:46:20.000Z</time>
      </trkpt>
      <trkpt lat="46.49078" lon="2.32722">
        <ele>278</ele>
        <time>2025-07-31T09:47:04.000Z</time>
      </trkpt>
      <trkpt lat="46.49039" lon="2.32688">
        <ele>282</ele>
        <time>2025-07-31T09:48:38.000Z</time>
      </trkpt>
      <trkpt lat="46.49011" lon="2.32666">
        <ele>286</ele>
        <time>2025-07-31T09:49:55.000Z</time>
      </trkpt>
      <trkpt lat="46.4899" lon="2.32639">
        <ele>287</ele>
        <time>2025-07-31T09:50:37.000Z</time>
      </trkpt>
      <trkpt lat="46.48977" lon="2.32625">
        <ele>288</ele>
        <time>2025-07-31T09:51:06.000Z</time>
      </trkpt>
      <trkpt lat="46.48997" lon="2.32576">
        <ele>278</ele>
        <time>2025-07-31T09:51:51.000Z</time>
      </trkpt>
      <trkpt lat="46.49002" lon="2.32526">
        <ele>272</ele>
        <time>2025-07-31T09:52:31.000Z</time>
      </trkpt>
      <trkpt lat="46.48995" lon="2.32506">
        <ele>271</ele>
        <time>2025-07-31T09:52:48.000Z</time>
      </trkpt>
      <trkpt lat="46.48975" lon="2.32474">
        <ele>274</ele>
        <time>2025-07-31T09:53:54.000Z</time>
      </trkpt>
      <trkpt lat="46.48964" lon="2.32452">
        <ele>274</ele>
        <time>2025-07-31T09:54:15.000Z</time>
      </trkpt>
      <trkpt lat="46.48948" lon="2.32424">
        <ele>271</ele>
        <time>2025-07-31T09:54:43.000Z</time>
      </trkpt>
      <trkpt lat="46.48931" lon="2.32417">
        <ele>271</ele>
        <time>2025-07-31T09:55:04.000Z</time>
      </trkpt>
      <trkpt lat="46.48923" lon="2.32421">
        <ele>272</ele>
        <time>2025-07-31T09:55:23.000Z</time>
      </trkpt>
      <trkpt lat="46.489" lon="2.32442">
        <ele>276</ele>
        <time>2025-07-31T09:56:36.000Z</time>
      </trkpt>
      <trkpt lat="46.48879" lon="2.32476">
        <ele>275</ele>
        <time>2025-07-31T09:57:12.000Z</time>
      </trkpt>
      <trkpt lat="46.48876" lon="2.3249">
        <ele>273</ele>
        <time>2025-07-31T09:57:23.000Z</time>
      </trkpt>
      <trkpt lat="46.48873" lon="2.32516">
        <ele>273</ele>
        <time>2025-07-31T09:57:44.000Z</time>
      </trkpt>
      <trkpt lat="46.48877" lon="2.32547">
        <ele>278</ele>
        <time>2025-07-31T09:59:01.000Z</time>
      </trkpt>
      <trkpt lat="46.48859" lon="2.32573">
        <ele>276</ele>
        <time>2025-07-31T09:59:30.000Z</time>
      </trkpt>
      <trkpt lat="46.48832" lon="2.32587">
        <ele>274</ele>
        <time>2025-07-31T10:00:03.000Z</time>
      </trkpt>
      <trkpt lat="46.48799" lon="2.32597">
        <ele>272</ele>
        <time>2025-07-31T10:00:41.000Z</time>
      </trkpt>
      <trkpt lat="46.48793" lon="2.32605">
        <ele>276</ele>
        <time>2025-07-31T10:01:32.000Z</time>
      </trkpt>
      <trkpt lat="46.48809" lon="2.32617">
        <ele>281</ele>
        <time>2025-07-31T10:02:44.000Z</time>
      </trkpt>
      <trkpt lat="46.48804" lon="2.3262">
        <ele>282</ele>
        <time>2025-07-31T10:03:00.000Z</time>
      </trkpt>
      <trkpt lat="46.48781" lon="2.32623">
        <ele>283</ele>
        <time>2025-07-31T10:03:37.000Z</time>
      </trkpt>
      <trkpt lat="46.48781" lon="2.32629">
        <ele>285</ele>
        <time>2025-07-31T10:04:02.000Z</time>
      </trkpt>
      <trkpt lat="46.4879" lon="2.32638">
        <ele>288</ele>
        <time>2025-07-31T10:04:46.000Z</time>
      </trkpt>
      <trkpt lat="46.48725" lon="2.3265">
        <ele>303</ele>
        <time>2025-07-31T10:08:36.000Z</time>
      </trkpt>
      <trkpt lat="46.48711" lon="2.32659">
        <ele>304</ele>
        <time>2025-07-31T10:09:03.000Z</time>
      </trkpt>
      <trkpt lat="46.48701" lon="2.32669">
        <ele>303</ele>
        <time>2025-07-31T10:09:17.000Z</time>
      </trkpt>
      <trkpt lat="46.48691" lon="2.3269">
        <ele>300</ele>
        <time>2025-07-31T10:09:37.000Z</time>
      </trkpt>
      <trkpt lat="46.48687" lon="2.32709">
        <ele>300</ele>
        <time>2025-07-31T10:09:53.000Z</time>
      </trkpt>
      <trkpt lat="46.48678" lon="2.32717">
        <ele>298</ele>
        <time>2025-07-31T10:10:05.000Z</time>
      </trkpt>
      <trkpt lat="46.48655" lon="2.32732">
        <ele>292</ele>
        <time>2025-07-31T10:10:34.000Z</time>
      </trkpt>
      <trkpt lat="46.48645" lon="2.32744">
        <ele>289</ele>
        <time>2025-07-31T10:10:49.000Z</time>
      </trkpt>
      <trkpt lat="46.48639" lon="2.32754">
        <ele>289</ele>
        <time>2025-07-31T10:10:59.000Z</time>
      </trkpt>
      <trkpt lat="46.48627" lon="2.32752">
        <ele>284</ele>
        <time>2025-07-31T10:11:13.000Z</time>
      </trkpt>
      <trkpt lat="46.48622" lon="2.32757">
        <ele>283</ele>
        <time>2025-07-31T10:11:21.000Z</time>
      </trkpt>
      <trkpt lat="46.48628" lon="2.32773">
        <ele>285</ele>
        <time>2025-07-31T10:11:56.000Z</time>
      </trkpt>
      <trkpt lat="46.48637" lon="2.32789">
        <ele>287</ele>
        <time>2025-07-31T10:12:32.000Z</time>
      </trkpt>
      <trkpt lat="46.48626" lon="2.32811">
        <ele>284</ele>
        <time>2025-07-31T10:12:54.000Z</time>
      </trkpt>
      <trkpt lat="46.48613" lon="2.32815">
        <ele>283</ele>
        <time>2025-07-31T10:13:09.000Z</time>
      </trkpt>
      <trkpt lat="46.48605" lon="2.32809">
        <ele>283</ele>
        <time>2025-07-31T10:13:20.000Z</time>
      </trkpt>
      <trkpt lat="46.48574" lon="2.32765">
        <ele>273</ele>
        <time>2025-07-31T10:14:09.000Z</time>
      </trkpt>
      <trkpt lat="46.48567" lon="2.3276">
        <ele>273</ele>
        <time>2025-07-31T10:14:18.000Z</time>
      </trkpt>
      <trkpt lat="46.48552" lon="2.32759">
        <ele>272</ele>
        <time>2025-07-31T10:14:35.000Z</time>
      </trkpt>
      <trkpt lat="46.48539" lon="2.3272">
        <ele>276</ele>
        <time>2025-07-31T10:15:51.000Z</time>
      </trkpt>
      <trkpt lat="46.48572" lon="2.32693">
        <ele>275</ele>
        <time>2025-07-31T10:16:35.000Z</time>
      </trkpt>
      <trkpt lat="46.48592" lon="2.32661">
        <ele>275</ele>
        <time>2025-07-31T10:17:09.000Z</time>
      </trkpt>
      <trkpt lat="46.486" lon="2.32625">
        <ele>278</ele>
        <time>2025-07-31T10:18:10.000Z</time>
      </trkpt>
      <trkpt lat="46.48616" lon="2.32535">
        <ele>278</ele>
        <time>2025-07-31T10:19:23.000Z</time>
      </trkpt>
      <trkpt lat="46.48618" lon="2.32478">
        <ele>284</ele>
        <time>2025-07-31T10:21:10.000Z</time>
      </trkpt>
      <trkpt lat="46.48624" lon="2.32463">
        <ele>283</ele>
        <time>2025-07-31T10:21:24.000Z</time>
      </trkpt>
      <trkpt lat="46.48634" lon="2.32454">
        <ele>281</ele>
        <time>2025-07-31T10:21:37.000Z</time>
      </trkpt>
      <trkpt lat="46.48649" lon="2.32453">
        <ele>278</ele>
        <time>2025-07-31T10:21:55.000Z</time>
      </trkpt>
      <trkpt lat="46.48691" lon="2.32465">
        <ele>277</ele>
        <time>2025-07-31T10:22:44.000Z</time>
      </trkpt>
      <trkpt lat="46.48727" lon="2.32477">
        <ele>282</ele>
        <time>2025-07-31T10:24:17.000Z</time>
      </trkpt>
      <trkpt lat="46.48745" lon="2.3249">
        <ele>281</ele>
        <time>2025-07-31T10:24:40.000Z</time>
      </trkpt>
      <trkpt lat="46.48773" lon="2.32513">
        <ele>274</ele>
        <time>2025-07-31T10:25:17.000Z</time>
      </trkpt>
      <trkpt lat="46.4879" lon="2.3251">
        <ele>274</ele>
        <time>2025-07-31T10:25:37.000Z</time>
      </trkpt>
      <trkpt lat="46.488" lon="2.32495">
        <ele>271</ele>
        <time>2025-07-31T10:25:53.000Z</time>
      </trkpt>
      <trkpt lat="46.48794" lon="2.32471">
        <ele>274</ele>
        <time>2025-07-31T10:26:44.000Z</time>
      </trkpt>
      <trkpt lat="46.48788" lon="2.32444">
        <ele>279</ele>
        <time>2025-07-31T10:27:58.000Z</time>
      </trkpt>
      <trkpt lat="46.48796" lon="2.32399">
        <ele>284</ele>
        <time>2025-07-31T10:29:26.000Z</time>
      </trkpt>
      <trkpt lat="46.48843" lon="2.32351">
        <ele>282</ele>
        <time>2025-07-31T10:30:32.000Z</time>
      </trkpt>
      <trkpt lat="46.48903" lon="2.32322">
        <ele>276</ele>
        <time>2025-07-31T10:31:44.000Z</time>
      </trkpt>
      <trkpt lat="46.4891" lon="2.32321">
        <ele>275</ele>
        <time>2025-07-31T10:31:53.000Z</time>
      </trkpt>
      <trkpt lat="46.48926" lon="2.32279">
        <ele>279</ele>
        <time>2025-07-31T10:33:11.000Z</time>
      </trkpt>
      <trkpt lat="46.48952" lon="2.32281">
        <ele>271</ele>
        <time>2025-07-31T10:33:41.000Z</time>
      </trkpt>
      <trkpt lat="46.4898" lon="2.32298">
        <ele>271</ele>
        <time>2025-07-31T10:34:15.000Z</time>
      </trkpt>
      <trkpt lat="46.49008" lon="2.32331">
        <ele>270</ele>
        <time>2025-07-31T10:34:56.000Z</time>
      </trkpt>
      <trkpt lat="46.49024" lon="2.3233">
        <ele>273</ele>
        <time>2025-07-31T10:35:45.000Z</time>
      </trkpt>
      <trkpt lat="46.49038" lon="2.32334">
        <ele>273</ele>
        <time>2025-07-31T10:36:02.000Z</time>
      </trkpt>
      <trkpt lat="46.49048" lon="2.32332">
        <ele>273</ele>
        <time>2025-07-31T10:36:14.000Z</time>
      </trkpt>
      <trkpt lat="46.49057" lon="2.32334">
        <ele>272</ele>
        <time>2025-07-31T10:36:24.000Z</time>
      </trkpt>
      <trkpt lat="46.4907" lon="2.32332">
        <ele>273</ele>
        <time>2025-07-31T10:36:50.000Z</time>
      </trkpt>
      <trkpt lat="46.49092" lon="2.3234">
        <ele>275</ele>
        <time>2025-07-31T10:37:36.000Z</time>
      </trkpt>
      <trkpt lat="46.49103" lon="2.32358">
        <ele>273</ele>
        <time>2025-07-31T10:37:55.000Z</time>
      </trkpt>
      <trkpt lat="46.49115" lon="2.32362">
        <ele>273</ele>
        <time>2025-07-31T10:38:09.000Z</time>
      </trkpt>
      <trkpt lat="46.49128" lon="2.32363">
        <ele>274</ele>
        <time>2025-07-31T10:38:35.000Z</time>
      </trkpt>
      <trkpt lat="46.4914" lon="2.32388">
        <ele>272</ele>
        <time>2025-07-31T10:38:59.000Z</time>
      </trkpt>
      <trkpt lat="46.4914" lon="2.32423">
        <ele>270</ele>
        <time>2025-07-31T10:39:26.000Z</time>
      </trkpt>
      <trkpt lat="46.49166" lon="2.32457">
        <ele>273</ele>
        <time>2025-07-31T10:40:36.000Z</time>
      </trkpt>
      <trkpt lat="46.49179" lon="2.32448">
        <ele>276</ele>
        <time>2025-07-31T10:41:23.000Z</time>
      </trkpt>
      <trkpt lat="46.49192" lon="2.32437">
        <ele>279</ele>
        <time>2025-07-31T10:42:12.000Z</time>
      </trkpt>
      <trkpt lat="46.4918" lon="2.32344">
        <ele>288</ele>
        <time>2025-07-31T10:44:59.000Z</time>
      </trkpt>
      <trkpt lat="46.49177" lon="2.32254">
        <ele>291</ele>
        <time>2025-07-31T10:46:41.000Z</time>
      </trkpt>
      <trkpt lat="46.49185" lon="2.32247">
        <ele>292</ele>
        <time>2025-07-31T10:47:01.000Z</time>
      </trkpt>
      <trkpt lat="46.49196" lon="2.32247">
        <ele>294</ele>
        <time>2025-07-31T10:47:34.000Z</time>
      </trkpt>
      <trkpt lat="46.49246" lon="2.32256">
        <ele>301</ele>
        <time>2025-07-31T10:49:44.000Z</time>
      </trkpt>
      <trkpt lat="46.49293" lon="2.32269">
        <ele>304</ele>
        <time>2025-07-31T10:51:09.000Z</time>
      </trkpt>
      <trkpt lat="46.49374" lon="2.32304">
        <ele>311</ele>
        <time>2025-07-31T10:53:59.000Z</time>
      </trkpt>
      <trkpt lat="46.49386" lon="2.32304">
        <ele>312</ele>
        <time>2025-07-31T10:54:23.000Z</time>
      </trkpt>
      <trkpt lat="46.49395" lon="2.32295">
        <ele>313</ele>
        <time>2025-07-31T10:54:45.000Z</time>
      </trkpt>
      <trkpt lat="46.49441" lon="2.32257">
        <ele>312</ele>
        <time>2025-07-31T10:55:46.000Z</time>
      </trkpt>
      <trkpt lat="46.49428" lon="2.32194">
        <ele>311</ele>
        <time>2025-07-31T10:56:38.000Z</time>
      </trkpt>
      <trkpt lat="46.49409" lon="2.32145">
        <ele>310</ele>
        <time>2025-07-31T10:57:23.000Z</time>
      </trkpt>
      <trkpt lat="46.49378" lon="2.32112">
        <ele>311</ele>
        <time>2025-07-31T10:58:17.000Z</time>
      </trkpt>
      <trkpt lat="46.4934" lon="2.32083">
        <ele>312</ele>
        <time>2025-07-31T10:59:17.000Z</time>
      </trkpt>
      <trkpt lat="46.49319" lon="2.32067">
        <ele>312</ele>
        <time>2025-07-31T10:59:44.000Z</time>
      </trkpt>
      <trkpt lat="46.49298" lon="2.32027">
        <ele>313</ele>
        <time>2025-07-31T11:00:34.000Z</time>
      </trkpt>
      <trkpt lat="46.49278" lon="2.31989">
        <ele>315</ele>
        <time>2025-07-31T11:01:32.000Z</time>
      </trkpt>
      <trkpt lat="46.49257" lon="2.31992">
        <ele>316</ele>
        <time>2025-07-31T11:02:06.000Z</time>
      </trkpt>
      <trkpt lat="46.49235" lon="2.31983">
        <ele>317</ele>
        <time>2025-07-31T11:02:43.000Z</time>
      </trkpt>
      <trkpt lat="46.49214" lon="2.31953">
        <ele>318</ele>
        <time>2025-07-31T11:03:27.000Z</time>
      </trkpt>
      <trkpt lat="46.49206" lon="2.31907">
        <ele>320</ele>
        <time>2025-07-31T11:04:25.000Z</time>
      </trkpt>
      <trkpt lat="46.49164" lon="2.31867">
        <ele>323</ele>
        <time>2025-07-31T11:05:53.000Z</time>
      </trkpt>
      <trkpt lat="46.4912" lon="2.31842">
        <ele>324</ele>
        <time>2025-07-31T11:06:58.000Z</time>
      </trkpt>
      <trkpt lat="46.49108" lon="2.31823">
        <ele>325</ele>
        <time>2025-07-31T11:07:29.000Z</time>
      </trkpt>
      <trkpt lat="46.49107" lon="2.31794">
        <ele>326</ele>
        <time>2025-07-31T11:08:02.000Z</time>
      </trkpt>
      <trkpt lat="46.49119" lon="2.31693">
        <ele>332</ele>
        <time>2025-07-31T11:10:24.000Z</time>
      </trkpt>
      <trkpt lat="46.49115" lon="2.31675">
        <ele>333</ele>
        <time>2025-07-31T11:10:49.000Z</time>
      </trkpt>
      <trkpt lat="46.48984" lon="2.31518">
        <ele>338</ele>
        <time>2025-07-31T11:14:54.000Z</time>
      </trkpt>
      <trkpt lat="46.48951" lon="2.31481">
        <ele>337</ele>
        <time>2025-07-31T11:15:42.000Z</time>
      </trkpt>
      <trkpt lat="46.48912" lon="2.31392">
        <ele>334</ele>
        <time>2025-07-31T11:17:06.000Z</time>
      </trkpt>
      <trkpt lat="46.48889" lon="2.31372">
        <ele>334</ele>
        <time>2025-07-31T11:17:36.000Z</time>
      </trkpt>
      <trkpt lat="46.48843" lon="2.31366">
        <ele>336</ele>
        <time>2025-07-31T11:18:49.000Z</time>
      </trkpt>
      <trkpt lat="46.48817" lon="2.31354">
        <ele>338</ele>
        <time>2025-07-31T11:19:41.000Z</time>
      </trkpt>
      <trkpt lat="46.48765" lon="2.31299">
        <ele>340</ele>
        <time>2025-07-31T11:21:15.000Z</time>
      </trkpt>
      <trkpt lat="46.48719" lon="2.31249">
        <ele>342</ele>
        <time>2025-07-31T11:22:42.000Z</time>
      </trkpt>
      <trkpt lat="46.48674" lon="2.31204">
        <ele>343</ele>
        <time>2025-07-31T11:23:55.000Z</time>
      </trkpt>
      <trkpt lat="46.48612" lon="2.31142">
        <ele>344</ele>
        <time>2025-07-31T11:25:31.000Z</time>
      </trkpt>
      <trkpt lat="46.48606" lon="2.31133">
        <ele>345</ele>
        <time>2025-07-31T11:25:51.000Z</time>
      </trkpt>
      <trkpt lat="46.48579" lon="2.31125">
        <ele>344</ele>
        <time>2025-07-31T11:26:23.000Z</time>
      </trkpt>
    </trkseg>
  </trk>
</gpx>